sensor_id;sensor_type;location;lat;lon;timestamp;pressure;altitude;pressure_sealevel;temperature;humidity
75403;BME280;63975;47.538;18.972;2022-11-15T00:00:25;99583.66;;;21.02;37.10
75403;BME280;63975;47.538;18.972;2022-11-15T00:03:50;99588.31;;;21.00;37.36
75403;BME280;63975;47.538;18.972;2022-11-15T00:07:11;99585.22;;;20.97;37.09
75403;BME280;63975;47.538;18.972;2022-11-15T00:10:59;99579.75;;;20.98;37.39
75403;BME280;63975;47.538;18.972;2022-11-15T00:14:21;99575.44;;;20.91;36.92
75403;BME280;63975;47.538;18.972;2022-11-15T00:17:41;99593.16;;;20.97;37.30
75403;BME280;63975;47.538;18.972;2022-11-15T00:21:09;99598.59;;;20.95;37.36
75403;BME280;63975;47.538;18.972;2022-11-15T00:24:30;99591.06;;;20.92;36.88
75403;BME280;63975;47.538;18.972;2022-11-15T00:27:55;99589.84;;;20.95;37.04
75403;BME280;63975;47.538;18.972;2022-11-15T00:31:16;99581.16;;;20.94;37.22
75403;BME280;63975;47.538;18.972;2022-11-15T00:34:37;99574.03;;;20.95;37.06
75403;BME280;63975;47.538;18.972;2022-11-15T00:37:57;99571.38;;;20.95;37.12
75403;BME280;63975;47.538;18.972;2022-11-15T00:41:18;99562.84;;;20.93;36.83
75403;BME280;63975;47.538;18.972;2022-11-15T00:44:39;99564.66;;;20.92;36.97
75403;BME280;63975;47.538;18.972;2022-11-15T00:48:00;99563.66;;;20.93;37.29
75403;BME280;63975;47.538;18.972;2022-11-15T00:51:21;99563.03;;;20.91;37.29
75403;BME280;63975;47.538;18.972;2022-11-15T00:54:42;99567.50;;;20.91;37.04
75403;BME280;63975;47.538;18.972;2022-11-15T00:58:03;99564.06;;;20.90;37.21
75403;BME280;63975;47.538;18.972;2022-11-15T01:01:24;99559.78;;;20.89;37.08
75403;BME280;63975;47.538;18.972;2022-11-15T01:04:44;99555.09;;;20.91;36.90
75403;BME280;63975;47.538;18.972;2022-11-15T01:08:05;99564.88;;;20.91;36.68
75403;BME280;63975;47.538;18.972;2022-11-15T01:11:26;99561.41;;;20.90;36.93
75403;BME280;63975;47.538;18.972;2022-11-15T01:14:47;99555.94;;;20.92;37.03
75403;BME280;63975;47.538;18.972;2022-11-15T01:18:08;99543.13;;;20.89;36.76
75403;BME280;63975;47.538;18.972;2022-11-15T01:21:29;99543.31;;;20.87;37.14
75403;BME280;63975;47.538;18.972;2022-11-15T01:24:50;99538.47;;;20.91;36.33
75403;BME280;63975;47.538;18.972;2022-11-15T01:28:11;99533.38;;;20.89;37.00
75403;BME280;63975;47.538;18.972;2022-11-15T01:31:32;99527.47;;;20.87;36.68
75403;BME280;63975;47.538;18.972;2022-11-15T01:34:52;99535.19;;;20.89;36.75
75403;BME280;63975;47.538;18.972;2022-11-15T01:38:13;99518.91;;;20.85;37.37
75403;BME280;63975;47.538;18.972;2022-11-15T01:41:34;99531.56;;;20.90;36.51
75403;BME280;63975;47.538;18.972;2022-11-15T01:44:55;99528.09;;;20.89;37.17
75403;BME280;63975;47.538;18.972;2022-11-15T01:48:16;99513.91;;;20.90;36.64
75403;BME280;63975;47.538;18.972;2022-11-15T01:51:37;99529.53;;;20.92;36.49
75403;BME280;63975;47.538;18.972;2022-11-15T01:55:08;99523.63;;;20.90;36.65
75403;BME280;63975;47.538;18.972;2022-11-15T01:58:30;99522.00;;;20.89;36.99
75403;BME280;63975;47.538;18.972;2022-11-15T02:01:52;99524.63;;;20.89;36.99
75403;BME280;63975;47.538;18.972;2022-11-15T02:05:12;99509.19;;;20.86;36.74
75403;BME280;63975;47.538;18.972;2022-11-15T02:08:33;99498.41;;;20.81;36.55
75403;BME280;63975;47.538;18.972;2022-11-15T02:11:55;99509.84;;;20.88;36.97
75403;BME280;63975;47.538;18.972;2022-11-15T02:15:16;99508.38;;;20.85;36.59
75403;BME280;63975;47.538;18.972;2022-11-15T02:18:41;99502.53;;;20.90;36.48
75403;BME280;63975;47.538;18.972;2022-11-15T02:25:40;99494.41;;;20.91;36.66
75403;BME280;63975;47.538;18.972;2022-11-15T02:29:07;99492.78;;;20.90;37.07
75403;BME280;63975;47.538;18.972;2022-11-15T02:32:40;99492.16;;;20.88;36.76
75403;BME280;63975;47.538;18.972;2022-11-15T02:36:11;99480.53;;;20.83;37.13
75403;BME280;63975;47.538;18.972;2022-11-15T02:40:00;99484.00;;;20.83;37.05
75403;BME280;63975;47.538;18.972;2022-11-15T02:43:24;99483.00;;;20.84;36.99
75403;BME280;63975;47.538;18.972;2022-11-15T02:47:06;99486.63;;;20.83;37.13
75403;BME280;63975;47.538;18.972;2022-11-15T02:50:34;99491.53;;;20.86;36.78
75403;BME280;63975;47.538;18.972;2022-11-15T02:53:54;99482.78;;;20.86;36.75
75403;BME280;63975;47.538;18.972;2022-11-15T02:57:16;99484.44;;;20.87;37.04
75403;BME280;63975;47.538;18.972;2022-11-15T03:04:53;99485.88;;;20.89;36.99
75403;BME280;63975;47.538;18.972;2022-11-15T03:08:22;99486.69;;;20.90;37.07
75403;BME280;63975;47.538;18.972;2022-11-15T03:11:50;99483.44;;;20.88;37.13
75403;BME280;63975;47.538;18.972;2022-11-15T03:15:22;99481.97;;;20.85;37.08
75403;BME280;63975;47.538;18.972;2022-11-15T03:18:48;99483.63;;;20.86;36.88
75403;BME280;63975;47.538;18.972;2022-11-15T03:22:13;99473.88;;;20.87;37.14
75403;BME280;63975;47.538;18.972;2022-11-15T03:25:41;99474.06;;;20.85;36.66
75403;BME280;63975;47.538;18.972;2022-11-15T03:29:14;99466.13;;;20.85;36.87
75403;BME280;63975;47.538;18.972;2022-11-15T03:33:09;99468.78;;;20.85;36.86
75403;BME280;63975;47.538;18.972;2022-11-15T03:36:31;99460.03;;;20.85;36.70
75403;BME280;63975;47.538;18.972;2022-11-15T03:39:53;99458.81;;;20.81;36.88
75403;BME280;63975;47.538;18.972;2022-11-15T03:47:21;99445.03;;;20.85;36.73
75403;BME280;63975;47.538;18.972;2022-11-15T03:50:45;99450.13;;;20.87;37.03
75403;BME280;63975;47.538;18.972;2022-11-15T03:54:06;99446.66;;;20.86;36.68
75403;BME280;63975;47.538;18.972;2022-11-15T03:57:27;99446.84;;;20.85;36.92
75403;BME280;63975;47.538;18.972;2022-11-15T04:00:48;99439.97;;;20.84;37.14
75403;BME280;63975;47.538;18.972;2022-11-15T04:04:10;99432.88;;;20.84;36.75
75403;BME280;63975;47.538;18.972;2022-11-15T04:07:30;99428.38;;;20.85;36.68
75403;BME280;63975;47.538;18.972;2022-11-15T04:10:51;99418.63;;;20.85;36.52
75403;BME280;63975;47.538;18.972;2022-11-15T04:14:12;99431.84;;;20.85;36.63
75403;BME280;63975;47.538;18.972;2022-11-15T04:17:35;99421.28;;;20.85;36.97
75403;BME280;63975;47.538;18.972;2022-11-15T04:20:56;99407.91;;;20.87;36.57
75403;BME280;63975;47.538;18.972;2022-11-15T04:24:36;99423.75;;;20.87;36.69
75403;BME280;63975;47.538;18.972;2022-11-15T04:27:57;99426.75;;;20.84;36.64
75403;BME280;63975;47.538;18.972;2022-11-15T04:31:17;99423.09;;;20.85;36.77
75403;BME280;63975;47.538;18.972;2022-11-15T04:34:38;99424.13;;;20.84;37.06
75403;BME280;63975;47.538;18.972;2022-11-15T04:38:00;99429.56;;;20.82;37.23
75403;BME280;63975;47.538;18.972;2022-11-15T04:41:21;99428.16;;;20.80;36.79
75403;BME280;63975;47.538;18.972;2022-11-15T04:44:42;99418.19;;;20.82;37.14
75403;BME280;63975;47.538;18.972;2022-11-15T04:48:04;99419.22;;;20.81;37.07
75403;BME280;63975;47.538;18.972;2022-11-15T04:51:25;99407.47;;;20.83;37.07
75403;BME280;63975;47.538;18.972;2022-11-15T04:54:45;99403.19;;;20.82;37.08
75403;BME280;63975;47.538;18.972;2022-11-15T04:58:06;99393.28;;;20.84;37.02
75403;BME280;63975;47.538;18.972;2022-11-15T05:01:27;99399.34;;;20.85;36.70
75403;BME280;63975;47.538;18.972;2022-11-15T05:04:48;99395.91;;;20.84;36.80
75403;BME280;63975;47.538;18.972;2022-11-15T05:08:09;99391.81;;;20.82;36.88
75403;BME280;63975;47.538;18.972;2022-11-15T05:11:30;99390.38;;;20.79;36.56
75403;BME280;63975;47.538;18.972;2022-11-15T05:14:51;99411.09;;;20.82;36.73
75403;BME280;63975;47.538;18.972;2022-11-15T05:18:12;99414.56;;;20.83;37.06
75403;BME280;63975;47.538;18.972;2022-11-15T05:21:33;99400.50;;;20.76;37.06
75403;BME280;63975;47.538;18.972;2022-11-15T05:24:54;99408.69;;;20.81;36.73
75403;BME280;63975;47.538;18.972;2022-11-15T05:28:15;99409.84;;;20.78;36.83
75403;BME280;63975;47.538;18.972;2022-11-15T05:31:39;99398.06;;;20.74;37.13
75403;BME280;63975;47.538;18.972;2022-11-15T05:35:00;99397.31;;;20.80;36.54
75403;BME280;63975;47.538;18.972;2022-11-15T05:38:22;99384.94;;;20.81;36.66
75403;BME280;63975;47.538;18.972;2022-11-15T05:41:55;99400.56;;;20.82;36.90
75403;BME280;63975;47.538;18.972;2022-11-15T05:45:20;99396.91;;;20.83;36.51
75403;BME280;63975;47.538;18.972;2022-11-15T05:48:49;99393.44;;;20.83;36.90
75403;BME280;63975;47.538;18.972;2022-11-15T05:52:13;99390.22;;;20.81;37.08
75403;BME280;63975;47.538;18.972;2022-11-15T05:55:37;99387.75;;;20.79;36.94
75403;BME280;63975;47.538;18.972;2022-11-15T05:58:58;99382.47;;;20.79;36.67
75403;BME280;63975;47.538;18.972;2022-11-15T06:02:19;99374.31;;;20.74;37.01
75403;BME280;63975;47.538;18.972;2022-11-15T06:05:40;99396.47;;;20.80;36.97
75403;BME280;63975;47.538;18.972;2022-11-15T06:09:01;99397.09;;;20.82;37.12
75403;BME280;63975;47.538;18.972;2022-11-15T06:12:22;99394.88;;;20.85;37.13
75403;BME280;63975;47.538;18.972;2022-11-15T06:15:43;99394.72;;;20.87;37.30
75403;BME280;63975;47.538;18.972;2022-11-15T06:19:06;99388.22;;;20.89;37.89
75403;BME280;63975;47.538;18.972;2022-11-15T06:22:26;99368.31;;;20.87;37.68
75403;BME280;63975;47.538;18.972;2022-11-15T06:25:47;99380.75;;;20.93;37.88
75403;BME280;63975;47.538;18.972;2022-11-15T06:29:09;99389.25;;;20.95;37.93
75403;BME280;63975;47.538;18.972;2022-11-15T06:32:29;99393.53;;;20.96;37.80
75403;BME280;63975;47.538;18.972;2022-11-15T06:35:51;99398.00;;;20.95;38.00
75403;BME280;63975;47.538;18.972;2022-11-15T06:39:12;99398.66;;;20.97;38.04
75403;BME280;63975;47.538;18.972;2022-11-15T06:42:32;99397.88;;;21.03;38.11
75403;BME280;63975;47.538;18.972;2022-11-15T06:45:53;99405.19;;;21.08;37.99
75403;BME280;63975;47.538;18.972;2022-11-15T06:49:14;99408.94;;;21.13;38.05
75403;BME280;63975;47.538;18.972;2022-11-15T06:52:35;99398.38;;;21.13;38.18
75403;BME280;63975;47.538;18.972;2022-11-15T06:56:04;99398.41;;;21.20;38.83
75403;BME280;63975;47.538;18.972;2022-11-15T06:59:25;99395.38;;;21.23;38.84
75403;BME280;63975;47.538;18.972;2022-11-15T07:02:47;99391.91;;;21.23;38.55
75403;BME280;63975;47.538;18.972;2022-11-15T07:06:09;99384.03;;;21.29;38.80
75403;BME280;63975;47.538;18.972;2022-11-15T07:09:42;99387.91;;;21.33;38.92
75403;BME280;63975;47.538;18.972;2022-11-15T07:13:13;99387.28;;;21.31;39.15
75403;BME280;63975;47.538;18.972;2022-11-15T07:16:34;99399.31;;;21.40;39.04
75403;BME280;63975;47.538;18.972;2022-11-15T07:19:54;99379.41;;;21.44;39.43
75403;BME280;63975;47.538;18.972;2022-11-15T07:23:15;99374.97;;;21.51;39.45
75403;BME280;63975;47.538;18.972;2022-11-15T07:26:36;99381.53;;;21.62;40.30
75403;BME280;63975;47.538;18.972;2022-11-15T07:29:57;99379.50;;;21.64;40.95
75403;BME280;63975;47.538;18.972;2022-11-15T07:33:18;99375.44;;;21.68;41.09
75403;BME280;63975;47.538;18.972;2022-11-15T07:36:39;99368.53;;;21.73;41.13
75403;BME280;63975;47.538;18.972;2022-11-15T07:40:29;99382.00;;;21.85;41.28
75403;BME280;63975;47.538;18.972;2022-11-15T07:43:53;99381.66;;;21.95;41.37
75403;BME280;63975;47.538;18.972;2022-11-15T07:47:14;99374.31;;;21.97;41.52
75403;BME280;63975;47.538;18.972;2022-11-15T07:50:35;99366.63;;;22.02;41.95
75403;BME280;63975;47.538;18.972;2022-11-15T07:58:42;99372.94;;;22.27;41.86
75403;BME280;63975;47.538;18.972;2022-11-15T08:02:03;99365.00;;;22.27;41.81
75403;BME280;63975;47.538;18.972;2022-11-15T08:05:24;99368.69;;;22.33;42.26
75403;BME280;63975;47.538;18.972;2022-11-15T08:08:46;99370.94;;;22.42;42.63
75403;BME280;63975;47.538;18.972;2022-11-15T08:12:07;99355.84;;;22.43;42.86
75403;BME280;63975;47.538;18.972;2022-11-15T08:15:28;99343.84;;;22.40;43.51
75403;BME280;63975;47.538;18.972;2022-11-15T08:18:50;99345.91;;;22.38;43.59
75403;BME280;63975;47.538;18.972;2022-11-15T08:22:10;99348.97;;;22.35;43.48
75403;BME280;63975;47.538;18.972;2022-11-15T08:30:07;99340.41;;;22.33;43.90
75403;BME280;63975;47.538;18.972;2022-11-15T10:41:11;99214.09;;;22.09;42.49
75403;BME280;63975;47.538;18.972;2022-11-15T10:44:34;99219.16;;;22.10;42.43
75403;BME280;63975;47.538;18.972;2022-11-15T10:48:32;99192.31;;;22.00;42.30
75403;BME280;63975;47.538;18.972;2022-11-15T10:55:03;99192.31;;;22.07;42.27
75403;BME280;63975;47.538;18.972;2022-11-15T10:58:33;99182.78;;;22.06;42.57
75403;BME280;63975;47.538;18.972;2022-11-15T11:01:46;99183.38;;;22.08;42.57
75403;BME280;63975;47.538;18.972;2022-11-15T11:04:54;99157.13;;;22.00;42.44
75403;BME280;63975;47.538;18.972;2022-11-15T11:11:19;99134.81;;;21.89;42.52
75403;BME280;63975;47.538;18.972;2022-11-15T11:14:24;99122.78;;;21.80;42.46
75403;BME280;63975;47.538;18.972;2022-11-15T11:32:56;99151.84;;;22.06;42.85
75403;BME280;63975;47.538;18.972;2022-11-15T11:37:14;99112.19;;;21.80;43.22
75403;BME280;63975;47.538;18.972;2022-11-15T11:43:42;99143.72;;;22.08;43.58
75403;BME280;63975;47.538;18.972;2022-11-15T11:51:15;99097.97;;;21.88;43.63
75403;BME280;63975;47.538;18.972;2022-11-15T12:04:53;99084.97;;;21.99;43.74
75403;BME280;63975;47.538;18.972;2022-11-15T12:13:48;99085.16;;;22.04;44.02
75403;BME280;63975;47.538;18.972;2022-11-15T12:16:51;99097.50;;;22.17;43.86
75403;BME280;63975;47.538;18.972;2022-11-15T12:19:57;99089.00;;;22.15;44.25
75403;BME280;63975;47.538;18.972;2022-11-15T12:26:26;99086.56;;;22.00;44.83
75403;BME280;63975;47.538;18.972;2022-11-15T12:29:38;99080.69;;;21.98;44.64
75403;BME280;63975;47.538;18.972;2022-11-15T12:33:09;99082.53;;;21.91;44.31
75403;BME280;63975;47.538;18.972;2022-11-15T12:36:38;99089.88;;;21.89;44.49
75403;BME280;63975;47.538;18.972;2022-11-15T12:40:17;99093.50;;;21.88;44.98
75403;BME280;63975;47.538;18.972;2022-11-15T12:43:39;99078.88;;;21.92;44.91
75403;BME280;63975;47.538;18.972;2022-11-15T12:49:45;99071.56;;;21.94;44.62
75403;BME280;63975;47.538;18.972;2022-11-15T12:56:25;99053.66;;;21.96;44.49
75403;BME280;63975;47.538;18.972;2022-11-15T13:03:24;99052.81;;;22.09;44.64
75403;BME280;63975;47.538;18.972;2022-11-15T13:09:58;99042.41;;;22.14;44.50
75403;BME280;63975;47.538;18.972;2022-11-15T13:13:10;99043.22;;;22.14;44.68
75403;BME280;63975;47.538;18.972;2022-11-15T13:16:22;99032.84;;;22.13;44.58
75403;BME280;63975;47.538;18.972;2022-11-15T13:19:26;99044.22;;;22.20;44.48
75403;BME280;63975;47.538;18.972;2022-11-15T13:22:38;99042.22;;;22.15;44.76
75403;BME280;63975;47.538;18.972;2022-11-15T13:26:28;99030.19;;;22.13;44.68
75403;BME280;63975;47.538;18.972;2022-11-15T13:29:30;99049.09;;;22.16;44.71
75403;BME280;63975;47.538;18.972;2022-11-15T13:32:32;99042.22;;;22.15;44.46
75403;BME280;63975;47.538;18.972;2022-11-15T13:35:39;99037.50;;;22.17;44.53
75403;BME280;63975;47.538;18.972;2022-11-15T13:38:42;99022.50;;;22.11;44.23
75403;BME280;63975;47.538;18.972;2022-11-15T13:41:48;99036.69;;;22.17;44.19
75403;BME280;63975;47.538;18.972;2022-11-15T13:44:59;99020.03;;;22.16;43.98
75403;BME280;63975;47.538;18.972;2022-11-15T13:48:03;99025.31;;;22.16;43.89
75403;BME280;63975;47.538;18.972;2022-11-15T13:58:12;98992.41;;;22.12;43.73
75403;BME280;63975;47.538;18.972;2022-11-15T14:01:18;98990.16;;;22.16;43.52
75403;BME280;63975;47.538;18.972;2022-11-15T14:04:24;98994.38;;;22.17;43.81
75403;BME280;63975;47.538;18.972;2022-11-15T14:07:28;98992.56;;;22.17;43.61
75403;BME280;63975;47.538;18.972;2022-11-15T14:10:36;98984.47;;;22.12;43.34
75403;BME280;63975;47.538;18.972;2022-11-15T14:13:39;98986.25;;;22.18;43.74
75403;BME280;63975;47.538;18.972;2022-11-15T14:16:43;98988.06;;;22.24;43.79
75403;BME280;63975;47.538;18.972;2022-11-15T14:19:46;98987.25;;;22.24;43.68
75403;BME280;63975;47.538;18.972;2022-11-15T14:22:57;98985.41;;;22.24;43.98
75403;BME280;63975;47.538;18.972;2022-11-15T14:25:59;98974.44;;;22.21;43.47
75403;BME280;63975;47.538;18.972;2022-11-15T14:29:28;98980.72;;;22.27;43.90
75403;BME280;63975;47.538;18.972;2022-11-15T14:32:48;98964.09;;;22.19;43.48
75403;BME280;63975;47.538;18.972;2022-11-15T14:35:55;98962.03;;;22.21;43.67
75403;BME280;63975;47.538;18.972;2022-11-15T14:38:59;98970.13;;;22.27;43.51
75403;BME280;63975;47.538;18.972;2022-11-15T14:42:01;98966.69;;;22.26;43.48
75403;BME280;63975;47.538;18.972;2022-11-15T14:45:21;98958.38;;;22.22;43.21
75403;BME280;63975;47.538;18.972;2022-11-15T14:48:23;98962.44;;;22.25;43.31
75403;BME280;63975;47.538;18.972;2022-11-15T14:51:25;98954.50;;;22.25;43.27
75403;BME280;63975;47.538;18.972;2022-11-15T14:54:28;98944.94;;;22.24;43.42
75403;BME280;63975;47.538;18.972;2022-11-15T14:57:30;98951.66;;;22.20;43.32
75403;BME280;63975;47.538;18.972;2022-11-15T15:00:33;98948.59;;;22.23;43.58
75403;BME280;63975;47.538;18.972;2022-11-15T15:03:36;98959.97;;;22.23;43.62
75403;BME280;63975;47.538;18.972;2022-11-15T15:06:39;98952.88;;;22.24;43.29
75403;BME280;63975;47.538;18.972;2022-11-15T15:09:42;98953.28;;;22.21;44.02
75403;BME280;63975;47.538;18.972;2022-11-15T15:12:44;98944.13;;;22.23;45.21
75403;BME280;63975;47.538;18.972;2022-11-15T15:15:48;98939.22;;;22.27;49.05
75403;BME280;63975;47.538;18.972;2022-11-15T15:18:50;98921.97;;;22.18;51.79
75403;BME280;63975;47.538;18.972;2022-11-15T15:21:52;98933.00;;;22.15;52.40
75403;BME280;63975;47.538;18.972;2022-11-15T15:24:55;98939.72;;;22.11;52.21
75403;BME280;63975;47.538;18.972;2022-11-15T15:27:57;98921.66;;;22.01;51.66
75403;BME280;63975;47.538;18.972;2022-11-15T15:30:59;98937.91;;;22.05;50.60
75403;BME280;63975;47.538;18.972;2022-11-15T15:34:02;98936.09;;;22.05;49.75
75403;BME280;63975;47.538;18.972;2022-11-15T15:37:24;98928.34;;;22.04;48.88
75403;BME280;63975;47.538;18.972;2022-11-15T15:40:29;98926.97;;;22.01;48.18
75403;BME280;63975;47.538;18.972;2022-11-15T15:43:32;98923.72;;;21.99;47.31
75403;BME280;63975;47.538;18.972;2022-11-15T15:46:35;98927.97;;;22.00;47.33
75403;BME280;63975;47.538;18.972;2022-11-15T15:49:37;98932.63;;;22.05;47.05
75403;BME280;63975;47.538;18.972;2022-11-15T15:52:39;98921.66;;;22.01;46.69
75403;BME280;63975;47.538;18.972;2022-11-15T15:55:42;98921.66;;;22.01;46.33
75403;BME280;63975;47.538;18.972;2022-11-15T15:58:44;98925.31;;;22.00;46.31
75403;BME280;63975;47.538;18.972;2022-11-15T16:01:46;98926.97;;;22.01;46.14
75403;BME280;63975;47.538;18.972;2022-11-15T16:04:49;98921.50;;;21.96;46.09
75403;BME280;63975;47.538;18.972;2022-11-15T16:07:51;98923.72;;;21.99;45.85
75403;BME280;63975;47.538;18.972;2022-11-15T16:10:53;98916.00;;;21.98;45.52
75403;BME280;63975;47.538;18.972;2022-11-15T16:13:56;98920.47;;;21.97;45.89
75403;BME280;63975;47.538;18.972;2022-11-15T16:16:58;98928.63;;;21.96;45.36
75403;BME280;63975;47.538;18.972;2022-11-15T16:20:00;98916.03;;;21.91;45.14
75403;BME280;63975;47.538;18.972;2022-11-15T16:23:06;98919.25;;;21.87;45.42
75403;BME280;63975;47.538;18.972;2022-11-15T16:26:21;98919.47;;;21.92;44.94
75403;BME280;63975;47.538;18.972;2022-11-15T16:29:24;98912.16;;;21.87;45.03
75403;BME280;63975;47.538;18.972;2022-11-15T16:32:26;98924.97;;;21.90;45.22
75403;BME280;63975;47.538;18.972;2022-11-15T16:35:29;98921.69;;;21.88;44.77
75403;BME280;63975;47.538;18.972;2022-11-15T16:38:31;98897.94;;;21.82;44.92
75403;BME280;63975;47.538;18.972;2022-11-15T16:41:34;98908.69;;;21.87;44.96
75403;BME280;63975;47.538;18.972;2022-11-15T16:44:36;98913.97;;;21.87;44.29
75403;BME280;63975;47.538;18.972;2022-11-15T16:47:38;98896.94;;;21.83;44.42
75403;BME280;63975;47.538;18.972;2022-11-15T16:50:40;98903.81;;;21.84;44.25
75403;BME280;63975;47.538;18.972;2022-11-15T16:53:44;98900.19;;;21.78;44.17
75403;BME280;63975;47.538;18.972;2022-11-15T16:56:46;98896.97;;;21.76;44.22
75403;BME280;63975;47.538;18.972;2022-11-15T16:59:49;98892.50;;;21.77;44.14
75403;BME280;63975;47.538;18.972;2022-11-15T17:02:52;98897.56;;;21.78;44.31
75403;BME280;63975;47.538;18.972;2022-11-15T17:05:57;98897.94;;;21.82;44.36
75403;BME280;63975;47.538;18.972;2022-11-15T17:09:00;98898.97;;;21.81;43.89
75403;BME280;63975;47.538;18.972;2022-11-15T17:12:02;98892.28;;;21.78;44.09
75403;BME280;63975;47.538;18.972;2022-11-15T17:15:05;98879.09;;;21.71;44.16
75403;BME280;63975;47.538;18.972;2022-11-15T17:18:10;98889.84;;;21.77;43.90
75403;BME280;63975;47.538;18.972;2022-11-15T17:21:15;98877.25;;;21.72;43.68
75403;BME280;63975;47.538;18.972;2022-11-15T17:24:18;98891.69;;;21.76;44.00
75403;BME280;63975;47.538;18.972;2022-11-15T17:27:22;98882.94;;;21.76;43.91
75403;BME280;63975;47.538;18.972;2022-11-15T17:30:24;98889.25;;;21.74;43.40
75403;BME280;63975;47.538;18.972;2022-11-15T17:33:27;98888.22;;;21.76;43.39
75403;BME280;63975;47.538;18.972;2022-11-15T17:36:30;98877.47;;;21.70;43.48
75403;BME280;63975;47.538;18.972;2022-11-15T17:39:32;98876.03;;;21.74;43.30
75403;BME280;63975;47.538;18.972;2022-11-15T17:42:34;98867.50;;;21.72;43.23
75403;BME280;63975;47.538;18.972;2022-11-15T17:45:39;98854.72;;;21.69;43.34
75403;BME280;63975;47.538;18.972;2022-11-15T17:48:43;98845.16;;;21.68;43.04
75403;BME280;63975;47.538;18.972;2022-11-15T17:51:46;98844.97;;;21.70;43.27
75403;BME280;63975;47.538;18.972;2022-11-15T17:54:51;98842.69;;;21.73;43.26
75403;BME280;63975;47.538;18.972;2022-11-15T17:57:53;98832.38;;;21.65;43.41
75403;BME280;63975;47.538;18.972;2022-11-15T18:04:08;98837.03;;;21.70;43.21
75403;BME280;63975;47.538;18.972;2022-11-15T18:07:11;98825.47;;;21.64;42.83
75403;BME280;63975;47.538;18.972;2022-11-15T18:10:15;98831.97;;;21.68;43.21
75403;BME280;63975;47.538;18.972;2022-11-15T18:13:18;98832.97;;;21.67;43.07
75403;BME280;63975;47.538;18.972;2022-11-15T18:16:23;98824.66;;;21.64;42.89
75403;BME280;63975;47.538;18.972;2022-11-15T18:19:28;98816.72;;;21.64;43.10
75403;BME280;63975;47.538;18.972;2022-11-15T18:22:30;98826.88;;;21.67;42.62
75403;BME280;63975;47.538;18.972;2022-11-15T18:25:33;98821.59;;;21.67;42.63
75403;BME280;63975;47.538;18.972;2022-11-15T18:28:37;98797.53;;;21.50;42.84
75403;BME280;63975;47.538;18.972;2022-11-15T18:31:39;98813.91;;;21.59;42.81
75403;BME280;63975;47.538;18.972;2022-11-15T18:34:48;98817.53;;;21.64;42.83
75403;BME280;63975;47.538;18.972;2022-11-15T18:37:50;98810.69;;;21.57;42.44
75403;BME280;63975;47.538;18.972;2022-11-15T18:40:53;98808.06;;;21.57;42.85
75403;BME280;63975;47.538;18.972;2022-11-15T18:43:59;98808.00;;;21.63;42.29
75403;BME280;63975;47.538;18.972;2022-11-15T18:47:02;98815.94;;;21.63;42.38
75403;BME280;63975;47.538;18.972;2022-11-15T18:50:04;98811.66;;;21.62;42.56
75403;BME280;63975;47.538;18.972;2022-11-15T18:53:07;98809.84;;;21.63;42.56
75403;BME280;63975;47.538;18.972;2022-11-15T18:56:14;98801.72;;;21.58;42.46
75403;BME280;63975;47.538;18.972;2022-11-15T18:59:17;98804.75;;;21.61;42.29
75403;BME280;63975;47.538;18.972;2022-11-15T19:02:19;98805.38;;;21.63;42.22
75403;BME280;63975;47.538;18.972;2022-11-15T19:05:21;98794.81;;;21.63;42.14
75403;BME280;63975;47.538;18.972;2022-11-15T19:08:24;98801.91;;;21.63;42.42
75403;BME280;63975;47.538;18.972;2022-11-15T19:11:31;98787.94;;;21.56;42.38
75403;BME280;63975;47.538;18.972;2022-11-15T19:14:36;98786.09;;;21.56;42.15
75403;BME280;63975;47.538;18.972;2022-11-15T19:17:38;98775.94;;;21.60;42.30
75403;BME280;63975;47.538;18.972;2022-11-15T19:20:40;98780.16;;;21.61;42.40
75403;BME280;63975;47.538;18.972;2022-11-15T19:23:43;98781.78;;;21.62;41.87
75403;BME280;63975;47.538;18.972;2022-11-15T19:26:45;98779.16;;;21.62;41.81
75403;BME280;63975;47.538;18.972;2022-11-15T19:29:47;98774.69;;;21.62;42.11
75403;BME280;63975;47.538;18.972;2022-11-15T19:32:50;98767.56;;;21.63;42.00
75403;BME280;63975;47.538;18.972;2022-11-15T19:36:01;98757.00;;;21.63;41.98
75403;BME280;63975;47.538;18.972;2022-11-15T19:39:06;98760.47;;;21.63;42.23
75403;BME280;63975;47.538;18.972;2022-11-15T19:42:10;98760.66;;;21.62;41.96
75403;BME280;63975;47.538;18.972;2022-11-15T19:45:13;98752.75;;;21.62;42.07
75403;BME280;63975;47.538;18.972;2022-11-15T19:48:15;98759.03;;;21.61;42.05
75403;BME280;63975;47.538;18.972;2022-11-15T19:51:19;98765.13;;;21.61;41.69
75403;BME280;63975;47.538;18.972;2022-11-15T19:54:25;98756.19;;;21.62;41.93
75403;BME280;63975;47.538;18.972;2022-11-15T19:57:27;98762.28;;;21.63;41.84
75403;BME280;63975;47.538;18.972;2022-11-15T20:00:29;98751.72;;;21.63;41.54
75403;BME280;63975;47.538;18.972;2022-11-15T20:03:33;98745.63;;;21.62;41.89
75403;BME280;63975;47.538;18.972;2022-11-15T20:06:39;98725.72;;;21.60;41.69
75403;BME280;63975;47.538;18.972;2022-11-15T20:09:41;98726.94;;;21.57;41.46
75403;BME280;63975;47.538;18.972;2022-11-15T20:12:44;98721.25;;;21.60;41.64
75403;BME280;63975;47.538;18.972;2022-11-15T20:15:46;98725.72;;;21.60;41.85
75403;BME280;63975;47.538;18.972;2022-11-15T20:18:49;98720.66;;;21.58;41.35
75403;BME280;63975;47.538;18.972;2022-11-15T20:21:52;98715.38;;;21.58;41.38
75403;BME280;63975;47.538;18.972;2022-11-15T20:24:54;98718.81;;;21.59;41.47
75403;BME280;63975;47.538;18.972;2022-11-15T20:27:56;98700.97;;;21.54;41.81
75403;BME280;63975;47.538;18.972;2022-11-15T20:30:59;98718.81;;;21.59;41.28
75403;BME280;63975;47.538;18.972;2022-11-15T20:34:01;98714.56;;;21.58;41.48
75403;BME280;63975;47.538;18.972;2022-11-15T20:37:04;98709.69;;;21.55;41.77